AVA123 SPJC-SPZO
Flight info
| Callsign | AVA123 |
|---|---|
| Flight time | 0h 53m |
| Altitude | 37000 |
| Route | JCL DCT LPA DCT AND DCT ZCO |
| Aircraft | A320/M-SDE3FGHIRWY/LB1 |
Departure
| Time | 2026-05-08 17:17 |
|---|---|
| Airport | Jorge Chávez International Airport (SPJC) |
Arrival
| Time | 2026-05-08 18:10 |
|---|---|
| Airport | Alejandro Velasco Astete International Airport (SPZO) |
| Time | Latitude | Longitude | Altitude | Speed | Heading |
|---|---|---|---|---|---|
| 2026-05-08 16:58 | -12.02204 | -77.11038 | 92 ft | 0 kts | 97° |
| 2026-05-08 17:10 | -12.02204 | -77.11041 | 92 ft | 2 kts | 97° |
| 2026-05-08 17:11 | -12.02203 | -77.11059 | 92 ft | 3 kts | 69° |
| 2026-05-08 17:11 | -12.02212 | -77.11075 | 93 ft | 3 kts | 33° |
| 2026-05-08 17:11 | -12.02228 | -77.11082 | 91 ft | 0 kts | 359° |
| 2026-05-08 17:12 | -12.02227 | -77.11082 | 91 ft | 0 kts | 359° |
| 2026-05-08 17:12 | -12.02218 | -77.11086 | 92 ft | 2 kts | 342° |
| 2026-05-08 17:13 | -12.02160 | -77.11108 | 91 ft | 12 kts | 333° |
| 2026-05-08 17:13 | -12.02086 | -77.11146 | 89 ft | 12 kts | 334° |
| 2026-05-08 17:13 | -12.01998 | -77.11188 | 88 ft | 15 kts | 335° |
| 2026-05-08 17:13 | -12.01927 | -77.11265 | 85 ft | 17 kts | 299° |
| 2026-05-08 17:14 | -12.01850 | -77.11374 | 74 ft | 22 kts | 321° |
| 2026-05-08 17:14 | -12.01696 | -77.11461 | 70 ft | 27 kts | 334° |
| 2026-05-08 17:14 | -12.01519 | -77.11546 | 68 ft | 29 kts | 330° |
| 2026-05-08 17:14 | -12.01331 | -77.11643 | 63 ft | 31 kts | 335° |
| 2026-05-08 17:15 | -12.01124 | -77.11734 | 63 ft | 33 kts | 339° |
| 2026-05-08 17:15 | -12.00921 | -77.11843 | 60 ft | 32 kts | 332° |
| 2026-05-08 17:15 | -12.00739 | -77.11936 | 52 ft | 22 kts | 334° |
| 2026-05-08 17:15 | -12.00682 | -77.12019 | 57 ft | 14 kts | 268° |
| 2026-05-08 17:16 | -12.00738 | -77.12115 | 53 ft | 18 kts | 215° |
| 2026-05-08 17:16 | -12.00876 | -77.12081 | 52 ft | 41 kts | 155° |
| 2026-05-08 17:16 | -12.01385 | -77.11830 | 63 ft | 117 kts | 154° |
| 2026-05-08 17:16 | -12.02292 | -77.11397 | 90 ft | 171 kts | 158° |
| 2026-05-08 17:17 | -12.03419 | -77.10872 | 761 ft | 178 kts | 156° |
| 2026-05-08 17:17 | -12.04540 | -77.10326 | 1651 ft | 182 kts | 155° |
| 2026-05-08 17:17 | -12.05731 | -77.09728 | 2089 ft | 202 kts | 154° |
| 2026-05-08 17:17 | -12.07065 | -77.09055 | 2451 ft | 227 kts | 154° |
| 2026-05-08 17:18 | -12.08485 | -77.08185 | 2918 ft | 251 kts | 136° |
| 2026-05-08 17:18 | -12.09424 | -77.06634 | 3581 ft | 266 kts | 106° |
| 2026-05-08 17:18 | -12.09913 | -77.04786 | 4433 ft | 273 kts | 103° |
| 2026-05-08 17:18 | -12.10396 | -77.02880 | 5288 ft | 280 kts | 104° |
| 2026-05-08 17:19 | -12.11054 | -77.00987 | 6147 ft | 285 kts | 110° |
| 2026-05-08 17:19 | -12.11768 | -76.99081 | 6971 ft | 290 kts | 110° |
| 2026-05-08 17:19 | -12.12496 | -76.97146 | 7796 ft | 293 kts | 110° |
| 2026-05-08 17:19 | -12.13233 | -76.95192 | 8623 ft | 297 kts | 110° |
| 2026-05-08 17:20 | -12.13979 | -76.93217 | 9454 ft | 301 kts | 110° |
| 2026-05-08 17:20 | -12.14736 | -76.91213 | 10213 ft | 306 kts | 110° |
| 2026-05-08 17:20 | -12.15525 | -76.89113 | 10481 ft | 329 kts | 110° |
| 2026-05-08 17:20 | -12.16376 | -76.86856 | 10731 ft | 350 kts | 110° |
| 2026-05-08 17:21 | -12.17266 | -76.84505 | 11293 ft | 358 kts | 110° |
| 2026-05-08 17:21 | -12.18170 | -76.82121 | 11996 ft | 361 kts | 110° |
| 2026-05-08 17:21 | -12.19080 | -76.79722 | 12718 ft | 363 kts | 111° |
| 2026-05-08 17:21 | -12.19992 | -76.77305 | 13425 ft | 365 kts | 111° |
| 2026-05-08 17:22 | -12.20905 | -76.74876 | 14085 ft | 367 kts | 110° |
| 2026-05-08 17:22 | -12.21823 | -76.72435 | 14681 ft | 370 kts | 110° |
| 2026-05-08 17:22 | -12.22749 | -76.69970 | 15268 ft | 372 kts | 110° |
| 2026-05-08 17:22 | -12.23670 | -76.67525 | 15841 ft | 375 kts | 110° |
| 2026-05-08 17:23 | -12.24613 | -76.65020 | 16403 ft | 378 kts | 110° |
| 2026-05-08 17:23 | -12.25561 | -76.62497 | 16954 ft | 382 kts | 110° |
| 2026-05-08 17:23 | -12.26517 | -76.59953 | 17514 ft | 385 kts | 110° |
| 2026-05-08 17:23 | -12.27480 | -76.57393 | 18064 ft | 388 kts | 110° |
| 2026-05-08 17:24 | -12.28451 | -76.54812 | 18565 ft | 390 kts | 110° |
| 2026-05-08 17:24 | -12.29430 | -76.52210 | 19026 ft | 393 kts | 110° |
| 2026-05-08 17:24 | -12.30416 | -76.49584 | 19485 ft | 396 kts | 110° |
| 2026-05-08 17:24 | -12.31407 | -76.46943 | 19941 ft | 399 kts | 110° |
| 2026-05-08 17:25 | -12.32407 | -76.44279 | 20388 ft | 402 kts | 110° |
| 2026-05-08 17:25 | -12.33414 | -76.41600 | 20854 ft | 405 kts | 110° |
| 2026-05-08 17:25 | -12.34427 | -76.38895 | 21293 ft | 409 kts | 110° |
| 2026-05-08 17:25 | -12.35449 | -76.36170 | 21718 ft | 412 kts | 111° |
| 2026-05-08 17:26 | -12.36471 | -76.33454 | 22135 ft | 416 kts | 111° |
| 2026-05-08 17:26 | -12.37515 | -76.30685 | 22552 ft | 419 kts | 111° |
| 2026-05-08 17:26 | -12.38562 | -76.27894 | 22963 ft | 423 kts | 111° |
| 2026-05-08 17:26 | -12.39618 | -76.25069 | 23365 ft | 426 kts | 111° |
| 2026-05-08 17:27 | -12.40679 | -76.22224 | 23763 ft | 429 kts | 111° |
| 2026-05-08 17:27 | -12.41748 | -76.19359 | 24090 ft | 433 kts | 111° |
| 2026-05-08 17:27 | -12.42827 | -76.16469 | 24423 ft | 437 kts | 112° |
| 2026-05-08 17:27 | -12.43916 | -76.13553 | 24762 ft | 440 kts | 112° |
| 2026-05-08 17:28 | -12.45014 | -76.10624 | 25102 ft | 443 kts | 112° |
| 2026-05-08 17:28 | -12.46116 | -76.07685 | 25428 ft | 446 kts | 112° |
| 2026-05-08 17:28 | -12.47228 | -76.04708 | 25764 ft | 449 kts | 112° |
| 2026-05-08 17:28 | -12.48343 | -76.01714 | 26075 ft | 452 kts | 112° |
| 2026-05-08 17:29 | -12.49467 | -75.98700 | 26394 ft | 455 kts | 112° |
| 2026-05-08 17:29 | -12.50598 | -75.95666 | 26717 ft | 458 kts | 112° |
| 2026-05-08 17:29 | -12.51736 | -75.92613 | 27000 ft | 460 kts | 112° |
| 2026-05-08 17:29 | -12.52881 | -75.89540 | 27295 ft | 464 kts | 112° |
| 2026-05-08 17:30 | -12.54037 | -75.86439 | 27628 ft | 467 kts | 113° |
| 2026-05-08 17:30 | -12.55189 | -75.83354 | 27943 ft | 470 kts | 113° |
| 2026-05-08 17:30 | -12.56345 | -75.80261 | 28246 ft | 473 kts | 113° |
| 2026-05-08 17:30 | -12.57522 | -75.77102 | 28530 ft | 476 kts | 113° |
| 2026-05-08 17:31 | -12.58703 | -75.73928 | 28817 ft | 479 kts | 113° |
| 2026-05-08 17:31 | -12.59873 | -75.70772 | 29095 ft | 482 kts | 113° |
| 2026-05-08 17:31 | -12.60658 | -75.68651 | 29280 ft | 483 kts | 113° |
| 2026-05-08 17:31 | -12.62263 | -75.64319 | 29628 ft | 487 kts | 113° |
| 2026-05-08 17:32 | -12.63470 | -75.61068 | 29906 ft | 490 kts | 114° |
| 2026-05-08 17:32 | -12.64669 | -75.57841 | 30184 ft | 493 kts | 114° |
| 2026-05-08 17:32 | -12.65891 | -75.54553 | 30412 ft | 495 kts | 114° |
| 2026-05-08 17:32 | -12.67118 | -75.51247 | 30640 ft | 498 kts | 114° |
| 2026-05-08 17:33 | -12.68345 | -75.47928 | 30905 ft | 499 kts | 114° |
| 2026-05-08 17:33 | -12.69573 | -75.44607 | 31214 ft | 499 kts | 114° |
| 2026-05-08 17:33 | -12.70804 | -75.41285 | 31515 ft | 499 kts | 114° |
| 2026-05-08 17:33 | -12.72040 | -75.37959 | 31839 ft | 500 kts | 114° |
| 2026-05-08 17:34 | -12.73273 | -75.34636 | 32162 ft | 500 kts | 115° |
| 2026-05-08 17:34 | -12.74507 | -75.31306 | 32479 ft | 500 kts | 115° |
| 2026-05-08 17:34 | -12.75739 | -75.27976 | 32762 ft | 501 kts | 115° |
| 2026-05-08 17:34 | -12.76974 | -75.24633 | 33095 ft | 501 kts | 115° |
| 2026-05-08 17:35 | -12.78207 | -75.21291 | 33407 ft | 501 kts | 115° |
| 2026-05-08 17:35 | -12.79443 | -75.17951 | 33695 ft | 502 kts | 115° |
| 2026-05-08 17:35 | -12.80600 | -75.14823 | 33998 ft | 502 kts | 115° |
| 2026-05-08 17:35 | -12.81473 | -75.12461 | 34221 ft | 502 kts | 115° |
| 2026-05-08 17:36 | -12.83126 | -75.07978 | 34605 ft | 503 kts | 116° |
| 2026-05-08 17:36 | -12.83941 | -75.05761 | 34805 ft | 503 kts | 116° |
| 2026-05-08 17:36 | -12.85573 | -75.01318 | 35174 ft | 503 kts | 115° |
| 2026-05-08 17:36 | -12.86802 | -74.97967 | 35437 ft | 503 kts | 115° |
| 2026-05-08 17:37 | -12.88037 | -74.94609 | 35705 ft | 503 kts | 116° |
| 2026-05-08 17:37 | -12.89276 | -74.91252 | 35978 ft | 503 kts | 116° |
| 2026-05-08 17:37 | -12.90513 | -74.87904 | 36255 ft | 503 kts | 116° |
| 2026-05-08 17:37 | -12.91752 | -74.84546 | 36513 ft | 503 kts | 116° |
| 2026-05-08 17:38 | -12.92984 | -74.81186 | 36771 ft | 504 kts | 115° |
| 2026-05-08 17:38 | -12.94213 | -74.77832 | 37050 ft | 503 kts | 115° |
| 2026-05-08 17:38 | -12.96681 | -74.71118 | 37172 ft | 503 kts | 116° |
| 2026-05-08 17:39 | -12.98729 | -74.65538 | 37154 ft | 504 kts | 116° |
| 2026-05-08 17:39 | -13.01197 | -74.58808 | 37149 ft | 504 kts | 116° |
| 2026-05-08 17:40 | -13.03656 | -74.52083 | 37169 ft | 504 kts | 115° |
| 2026-05-08 17:40 | -13.06127 | -74.45352 | 37201 ft | 504 kts | 115° |
| 2026-05-08 17:41 | -13.08600 | -74.38624 | 37259 ft | 504 kts | 116° |
| 2026-05-08 17:41 | -13.11062 | -74.31892 | 37321 ft | 504 kts | 115° |
| 2026-05-08 17:42 | -13.13500 | -74.25177 | 37331 ft | 504 kts | 115° |
| 2026-05-08 17:42 | -13.15701 | -74.18337 | 37329 ft | 508 kts | 107° |
| 2026-05-08 17:43 | -13.17511 | -74.10377 | 37317 ft | 509 kts | 107° |
| 2026-05-08 17:43 | -13.19103 | -74.03349 | 37263 ft | 509 kts | 107° |
| 2026-05-08 17:44 | -13.20448 | -73.97423 | 37220 ft | 509 kts | 107° |
| 2026-05-08 17:44 | -13.22033 | -73.90401 | 37163 ft | 509 kts | 107° |
| 2026-05-08 17:45 | -13.23628 | -73.83320 | 37106 ft | 508 kts | 107° |
| 2026-05-08 17:45 | -13.25222 | -73.76259 | 37086 ft | 508 kts | 107° |
| 2026-05-08 17:46 | -13.26820 | -73.69194 | 37089 ft | 508 kts | 107° |
| 2026-05-08 17:46 | -13.28406 | -73.62128 | 37089 ft | 509 kts | 107° |
| 2026-05-08 17:47 | -13.29993 | -73.55054 | 37084 ft | 508 kts | 107° |
| 2026-05-08 17:47 | -13.31591 | -73.47991 | 36757 ft | 507 kts | 107° |
| 2026-05-08 17:48 | -13.32385 | -73.44469 | 36503 ft | 506 kts | 107° |
| 2026-05-08 17:48 | -13.33177 | -73.40944 | 36256 ft | 507 kts | 107° |
| 2026-05-08 17:48 | -13.33956 | -73.37467 | 36019 ft | 508 kts | 106° |
| 2026-05-08 17:48 | -13.34759 | -73.33876 | 35776 ft | 507 kts | 107° |
| 2026-05-08 17:49 | -13.35537 | -73.30398 | 35522 ft | 506 kts | 106° |
| 2026-05-08 17:49 | -13.36340 | -73.26811 | 34566 ft | 514 kts | 106° |
| 2026-05-08 17:49 | -13.37152 | -73.23207 | 33577 ft | 521 kts | 106° |
| 2026-05-08 17:49 | -13.37950 | -73.19643 | 32851 ft | 518 kts | 105° |
| 2026-05-08 17:50 | -13.38750 | -73.16035 | 32009 ft | 518 kts | 105° |
| 2026-05-08 17:50 | -13.39546 | -73.12434 | 31248 ft | 516 kts | 104° |
| 2026-05-08 17:50 | -13.40348 | -73.08810 | 30629 ft | 510 kts | 104° |
| 2026-05-08 17:50 | -13.41125 | -73.05316 | 29861 ft | 506 kts | 104° |
| 2026-05-08 17:51 | -13.41906 | -73.01814 | 29098 ft | 501 kts | 104° |
| 2026-05-08 17:51 | -13.42685 | -72.98339 | 28398 ft | 495 kts | 104° |
| 2026-05-08 17:51 | -13.43431 | -72.94998 | 27760 ft | 490 kts | 103° |
| 2026-05-08 17:51 | -13.44183 | -72.91613 | 27096 ft | 483 kts | 104° |
| 2026-05-08 17:52 | -13.44817 | -72.88244 | 26403 ft | 478 kts | 97° |
| 2026-05-08 17:52 | -13.44928 | -72.84857 | 25793 ft | 472 kts | 87° |
| 2026-05-08 17:52 | -13.44414 | -72.78265 | 25089 ft | 450 kts | 85° |
| 2026-05-08 17:53 | -13.44165 | -72.75099 | 25076 ft | 442 kts | 85° |
| 2026-05-08 17:53 | -13.43919 | -72.71956 | 25084 ft | 441 kts | 85° |
| 2026-05-08 17:53 | -13.43673 | -72.68816 | 25082 ft | 441 kts | 85° |
| 2026-05-08 17:53 | -13.43427 | -72.65677 | 25079 ft | 441 kts | 85° |
| 2026-05-08 17:54 | -13.43180 | -72.62542 | 25079 ft | 440 kts | 85° |
| 2026-05-08 17:54 | -13.42932 | -72.59412 | 25079 ft | 440 kts | 85° |
| 2026-05-08 17:54 | -13.42684 | -72.56274 | 25070 ft | 440 kts | 85° |
| 2026-05-08 17:54 | -13.42437 | -72.53164 | 25071 ft | 444 kts | 85° |
| 2026-05-08 17:55 | -13.42183 | -72.50002 | 25073 ft | 445 kts | 85° |
| 2026-05-08 17:55 | -13.41926 | -72.46861 | 24901 ft | 439 kts | 85° |
| 2026-05-08 17:55 | -13.41669 | -72.43742 | 24830 ft | 438 kts | 85° |
| 2026-05-08 17:55 | -13.41415 | -72.40625 | 24759 ft | 438 kts | 85° |
| 2026-05-08 17:56 | -13.41166 | -72.37509 | 24688 ft | 438 kts | 85° |
| 2026-05-08 17:56 | -13.40917 | -72.34394 | 24543 ft | 437 kts | 85° |
| 2026-05-08 17:56 | -13.40667 | -72.31288 | 24311 ft | 435 kts | 85° |
| 2026-05-08 17:56 | -13.40501 | -72.28191 | 24092 ft | 433 kts | 87° |
| 2026-05-08 17:57 | -13.40359 | -72.25103 | 23910 ft | 432 kts | 87° |
| 2026-05-08 17:57 | -13.40216 | -72.22032 | 23726 ft | 430 kts | 87° |
| 2026-05-08 17:57 | -13.40074 | -72.18971 | 23504 ft | 428 kts | 87° |
| 2026-05-08 17:57 | -13.39930 | -72.15922 | 23259 ft | 427 kts | 87° |
| 2026-05-08 17:58 | -13.39785 | -72.12889 | 22869 ft | 424 kts | 87° |
| 2026-05-08 17:58 | -13.39641 | -72.09875 | 22483 ft | 421 kts | 87° |
| 2026-05-08 17:58 | -13.39495 | -72.06887 | 22094 ft | 418 kts | 87° |
| 2026-05-08 17:58 | -13.39351 | -72.03917 | 21708 ft | 415 kts | 87° |
| 2026-05-08 17:59 | -13.39208 | -72.01004 | 21326 ft | 412 kts | 87° |
| 2026-05-08 17:59 | -13.39062 | -71.98023 | 20562 ft | 416 kts | 87° |
| 2026-05-08 17:59 | -13.38920 | -71.95072 | 19733 ft | 422 kts | 87° |
| 2026-05-08 17:59 | -13.38774 | -71.92057 | 19120 ft | 419 kts | 87° |
| 2026-05-08 18:00 | -13.38634 | -71.89177 | 18982 ft | 390 kts | 87° |
| 2026-05-08 18:00 | -13.38380 | -71.83979 | 18731 ft | 341 kts | 87° |
| 2026-05-08 18:00 | -13.38261 | -71.81614 | 18560 ft | 323 kts | 87° |
| 2026-05-08 18:01 | -13.38147 | -71.79347 | 18248 ft | 311 kts | 87° |
| 2026-05-08 18:01 | -13.38041 | -71.77188 | 18090 ft | 296 kts | 87° |
| 2026-05-08 18:01 | -13.38016 | -71.75121 | 17888 ft | 283 kts | 96° |
| 2026-05-08 18:01 | -13.38390 | -71.73180 | 17617 ft | 272 kts | 108° |
| 2026-05-08 18:02 | -13.39119 | -71.71432 | 17403 ft | 261 kts | 119° |
| 2026-05-08 18:02 | -13.39754 | -71.70396 | 17253 ft | 256 kts | 126° |
| 2026-05-08 18:02 | -13.41332 | -71.68658 | 17014 ft | 250 kts | 141° |
| 2026-05-08 18:02 | -13.42710 | -71.67682 | 16800 ft | 233 kts | 152° |
| 2026-05-08 18:03 | -13.44171 | -71.67005 | 16612 ft | 229 kts | 161° |
| 2026-05-08 18:03 | -13.45705 | -71.66602 | 16426 ft | 227 kts | 171° |
| 2026-05-08 18:03 | -13.47275 | -71.66471 | 16235 ft | 226 kts | 181° |
| 2026-05-08 18:03 | -13.48836 | -71.66620 | 16048 ft | 225 kts | 191° |
| 2026-05-08 18:04 | -13.50343 | -71.67039 | 15862 ft | 224 kts | 201° |
| 2026-05-08 18:04 | -13.51753 | -71.67714 | 15685 ft | 223 kts | 211° |
| 2026-05-08 18:04 | -13.53026 | -71.68617 | 15504 ft | 222 kts | 221° |
| 2026-05-08 18:04 | -13.54213 | -71.69639 | 15317 ft | 222 kts | 220° |
| 2026-05-08 18:05 | -13.55403 | -71.70650 | 15116 ft | 222 kts | 220° |
| 2026-05-08 18:05 | -13.56568 | -71.71692 | 14810 ft | 221 kts | 227° |
| 2026-05-08 18:05 | -13.57487 | -71.72918 | 14493 ft | 218 kts | 240° |
| 2026-05-08 18:05 | -13.58106 | -71.74292 | 14235 ft | 202 kts | 252° |
| 2026-05-08 18:06 | -13.58405 | -71.75635 | 13967 ft | 185 kts | 264° |
| 2026-05-08 18:06 | -13.58444 | -71.76913 | 13746 ft | 175 kts | 275° |
| 2026-05-08 18:06 | -13.58270 | -71.78136 | 13522 ft | 171 kts | 284° |
| 2026-05-08 18:06 | -13.57902 | -71.79292 | 13321 ft | 170 kts | 294° |
| 2026-05-08 18:07 | -13.57457 | -71.80413 | 13110 ft | 169 kts | 293° |
| 2026-05-08 18:07 | -13.57014 | -71.81533 | 12974 ft | 169 kts | 293° |
| 2026-05-08 18:07 | -13.56599 | -71.82662 | 12818 ft | 169 kts | 290° |
| 2026-05-08 18:07 | -13.56220 | -71.83802 | 12626 ft | 168 kts | 289° |
| 2026-05-08 18:08 | -13.55845 | -71.84937 | 12303 ft | 167 kts | 291° |
| 2026-05-08 18:08 | -13.55372 | -71.86029 | 11974 ft | 166 kts | 298° |
| 2026-05-08 18:08 | -13.54785 | -71.87048 | 11698 ft | 166 kts | 302° |
| 2026-05-08 18:08 | -13.54281 | -71.88096 | 11477 ft | 165 kts | 289° |
| 2026-05-08 18:09 | -13.54030 | -71.89239 | 11228 ft | 163 kts | 279° |
| 2026-05-08 18:09 | -13.53903 | -71.90395 | 11045 ft | 163 kts | 275° |
| 2026-05-08 18:09 | -13.53818 | -71.91552 | 10856 ft | 162 kts | 276° |
| 2026-05-08 18:09 | -13.53689 | -71.92695 | 10731 ft | 152 kts | 277° |
| 2026-05-08 18:10 | -13.53612 | -71.93469 | 10776 ft | 65 kts | 276° |
| 2026-05-08 18:10 | -13.53585 | -71.93722 | 10801 ft | 26 kts | 273° |
| 2026-05-08 18:10 | -13.53579 | -71.93892 | 10803 ft | 22 kts | 284° |
| 2026-05-08 18:10 | -13.53607 | -71.94032 | 10809 ft | 19 kts | 243° |
| 2026-05-08 18:11 | -13.53657 | -71.94151 | 10813 ft | 17 kts | 248° |
| 2026-05-08 18:11 | -13.53680 | -71.94251 | 10817 ft | 11 kts | 234° |
| 2026-05-08 18:11 | -13.53714 | -71.94280 | 10817 ft | 5 kts | 245° |
| 2026-05-08 18:11 | -13.53723 | -71.94318 | 10817 ft | 6 kts | 256° |
| 2026-05-08 18:12 | -13.53724 | -71.94322 | 10817 ft | 0 kts | 256° |